sensor_id;sensor_type;location;lat;lon;timestamp;P1;durP1;ratioP1;P2;durP2;ratioP2
50249;SDS011;36133;42.522;27.456;2023-06-26T00:00:22;10.02;;;6.05;;
50249;SDS011;36133;42.522;27.456;2023-06-26T00:02:47;11.35;;;5.85;;
50249;SDS011;36133;42.522;27.456;2023-06-26T00:05:13;12.85;;;5.43;;
50249;SDS011;36133;42.522;27.456;2023-06-26T00:07:38;6.90;;;5.07;;
50249;SDS011;36133;42.522;27.456;2023-06-26T00:10:04;13.15;;;5.75;;
50249;SDS011;36133;42.522;27.456;2023-06-26T00:12:31;9.00;;;5.50;;
50249;SDS011;36133;42.522;27.456;2023-06-26T00:14:56;7.20;;;5.80;;
50249;SDS011;36133;42.522;27.456;2023-06-26T00:17:22;10.40;;;5.07;;
50249;SDS011;36133;42.522;27.456;2023-06-26T00:19:48;9.55;;;5.63;;
50249;SDS011;36133;42.522;27.456;2023-06-26T00:22:37;11.00;;;6.13;;
50249;SDS011;36133;42.522;27.456;2023-06-26T00:25:06;8.13;;;5.80;;
50249;SDS011;36133;42.522;27.456;2023-06-26T00:27:32;8.85;;;5.38;;
50249;SDS011;36133;42.522;27.456;2023-06-26T00:29:58;7.95;;;6.13;;
50249;SDS011;36133;42.522;27.456;2023-06-26T00:32:23;10.55;;;6.20;;
50249;SDS011;36133;42.522;27.456;2023-06-26T00:34:49;11.55;;;6.00;;
50249;SDS011;36133;42.522;27.456;2023-06-26T00:37:23;7.70;;;5.88;;
50249;SDS011;36133;42.522;27.456;2023-06-26T00:39:49;12.73;;;5.72;;
50249;SDS011;36133;42.522;27.456;2023-06-26T00:42:14;8.70;;;5.85;;
50249;SDS011;36133;42.522;27.456;2023-06-26T00:44:40;13.10;;;6.47;;
50249;SDS011;36133;42.522;27.456;2023-06-26T00:47:05;10.02;;;6.00;;
50249;SDS011;36133;42.522;27.456;2023-06-26T00:49:31;8.10;;;6.25;;
50249;SDS011;36133;42.522;27.456;2023-06-26T00:51:59;9.23;;;6.55;;
50249;SDS011;36133;42.522;27.456;2023-06-26T00:54:25;10.15;;;6.88;;
50249;SDS011;36133;42.522;27.456;2023-06-26T00:56:51;8.15;;;6.47;;
50249;SDS011;36133;42.522;27.456;2023-06-26T00:59:16;11.25;;;6.63;;
50249;SDS011;36133;42.522;27.456;2023-06-26T01:01:42;14.10;;;7.40;;
50249;SDS011;36133;42.522;27.456;2023-06-26T01:04:08;9.52;;;7.10;;
50249;SDS011;36133;42.522;27.456;2023-06-26T01:06:41;8.57;;;6.88;;
50249;SDS011;36133;42.522;27.456;2023-06-26T01:09:06;12.70;;;8.15;;
50249;SDS011;36133;42.522;27.456;2023-06-26T01:11:32;14.95;;;7.82;;
50249;SDS011;36133;42.522;27.456;2023-06-26T01:13:58;11.40;;;7.32;;
50249;SDS011;36133;42.522;27.456;2023-06-26T01:16:26;10.95;;;7.40;;
50249;SDS011;36133;42.522;27.456;2023-06-26T01:18:54;14.35;;;7.65;;
50249;SDS011;36133;42.522;27.456;2023-06-26T01:21:22;11.85;;;8.38;;
50249;SDS011;36133;42.522;27.456;2023-06-26T01:24:02;12.85;;;8.63;;
50249;SDS011;36133;42.522;27.456;2023-06-26T01:26:35;13.82;;;8.70;;
50249;SDS011;36133;42.522;27.456;2023-06-26T01:29:06;11.15;;;8.23;;
50249;SDS011;36133;42.522;27.456;2023-06-26T01:31:32;13.15;;;8.57;;
50249;SDS011;36133;42.522;27.456;2023-06-26T01:33:59;12.55;;;8.77;;
50249;SDS011;36133;42.522;27.456;2023-06-26T01:36:26;13.82;;;8.45;;
50249;SDS011;36133;42.522;27.456;2023-06-26T01:38:52;15.48;;;8.27;;
50249;SDS011;36133;42.522;27.456;2023-06-26T01:41:36;15.48;;;9.52;;
50249;SDS011;36133;42.522;27.456;2023-06-26T01:55:50;15.95;;;9.80;;
50249;SDS011;36133;42.522;27.456;2023-06-26T01:58:22;16.33;;;9.70;;
50249;SDS011;36133;42.522;27.456;2023-06-26T02:00:50;14.32;;;9.80;;
50249;SDS011;36133;42.522;27.456;2023-06-26T02:03:16;16.88;;;9.45;;
50249;SDS011;36133;42.522;27.456;2023-06-26T02:05:44;16.08;;;10.43;;
50249;SDS011;36133;42.522;27.456;2023-06-26T02:08:10;13.05;;;9.35;;
50249;SDS011;36133;42.522;27.456;2023-06-26T02:10:37;14.38;;;9.77;;
50249;SDS011;36133;42.522;27.456;2023-06-26T02:13:08;12.45;;;8.52;;
50249;SDS011;36133;42.522;27.456;2023-06-26T02:15:34;16.23;;;9.73;;
50249;SDS011;36133;42.522;27.456;2023-06-26T02:18:00;15.63;;;9.32;;
50249;SDS011;36133;42.522;27.456;2023-06-26T02:20:25;12.05;;;10.02;;
50249;SDS011;36133;42.522;27.456;2023-06-26T02:22:51;16.85;;;10.30;;
50249;SDS011;36133;42.522;27.456;2023-06-26T02:25:17;14.80;;;9.63;;
50249;SDS011;36133;42.522;27.456;2023-06-26T02:27:43;14.65;;;9.60;;
50249;SDS011;36133;42.522;27.456;2023-06-26T02:30:09;13.05;;;9.15;;
50249;SDS011;36133;42.522;27.456;2023-06-26T02:32:35;18.52;;;10.27;;
50249;SDS011;36133;42.522;27.456;2023-06-26T02:35:00;14.73;;;10.00;;
50249;SDS011;36133;42.522;27.456;2023-06-26T02:37:26;19.77;;;10.35;;
50249;SDS011;36133;42.522;27.456;2023-06-26T02:39:52;16.02;;;9.90;;
50249;SDS011;36133;42.522;27.456;2023-06-26T02:42:26;18.55;;;10.00;;
50249;SDS011;36133;42.522;27.456;2023-06-26T02:45:07;15.85;;;9.90;;
50249;SDS011;36133;42.522;27.456;2023-06-26T02:47:36;20.05;;;10.50;;
50249;SDS011;36133;42.522;27.456;2023-06-26T02:50:05;19.63;;;10.77;;
50249;SDS011;36133;42.522;27.456;2023-06-26T02:52:31;15.85;;;9.75;;
50249;SDS011;36133;42.522;27.456;2023-06-26T02:54:57;16.23;;;10.85;;
50249;SDS011;36133;42.522;27.456;2023-06-26T02:57:23;15.15;;;10.52;;
50249;SDS011;36133;42.522;27.456;2023-06-26T02:59:48;17.83;;;10.52;;
50249;SDS011;36133;42.522;27.456;2023-06-26T03:02:14;15.95;;;10.02;;
50249;SDS011;36133;42.522;27.456;2023-06-26T03:04:39;14.70;;;10.27;;
50249;SDS011;36133;42.522;27.456;2023-06-26T03:07:08;17.48;;;10.18;;
50249;SDS011;36133;42.522;27.456;2023-06-26T03:09:34;17.35;;;10.23;;
50249;SDS011;36133;42.522;27.456;2023-06-26T03:12:07;17.77;;;10.13;;
50249;SDS011;36133;42.522;27.456;2023-06-26T03:14:38;14.15;;;9.70;;
50249;SDS011;36133;42.522;27.456;2023-06-26T03:17:04;13.30;;;9.98;;
50249;SDS011;36133;42.522;27.456;2023-06-26T03:19:35;14.70;;;10.48;;
50249;SDS011;36133;42.522;27.456;2023-06-26T03:22:00;18.17;;;10.27;;
50249;SDS011;36133;42.522;27.456;2023-06-26T03:24:27;17.20;;;10.02;;
50249;SDS011;36133;42.522;27.456;2023-06-26T03:26:53;17.50;;;9.88;;
50249;SDS011;36133;42.522;27.456;2023-06-26T03:29:19;11.68;;;8.60;;
50249;SDS011;36133;42.522;27.456;2023-06-26T03:31:44;20.67;;;9.38;;
50249;SDS011;36133;42.522;27.456;2023-06-26T03:34:46;16.38;;;10.07;;
50249;SDS011;36133;42.522;27.456;2023-06-26T03:37:12;16.17;;;9.30;;
50249;SDS011;36133;42.522;27.456;2023-06-26T03:39:37;12.05;;;8.95;;
50249;SDS011;36133;42.522;27.456;2023-06-26T03:42:03;14.00;;;9.48;;
50249;SDS011;36133;42.522;27.456;2023-06-26T03:44:29;15.02;;;8.48;;
50249;SDS011;36133;42.522;27.456;2023-06-26T03:46:54;19.63;;;9.20;;
50249;SDS011;36133;42.522;27.456;2023-06-26T03:49:20;13.05;;;8.30;;
50249;SDS011;36133;42.522;27.456;2023-06-26T03:51:45;12.85;;;7.85;;
50249;SDS011;36133;42.522;27.456;2023-06-26T03:54:11;12.98;;;7.93;;
50249;SDS011;36133;42.522;27.456;2023-06-26T03:56:37;11.20;;;8.15;;
50249;SDS011;36133;42.522;27.456;2023-06-26T03:59:02;14.80;;;8.65;;
50249;SDS011;36133;42.522;27.456;2023-06-26T04:01:28;14.40;;;7.97;;
50249;SDS011;36133;42.522;27.456;2023-06-26T04:03:53;17.52;;;8.23;;
50249;SDS011;36133;42.522;27.456;2023-06-26T04:06:19;10.02;;;7.65;;
50249;SDS011;36133;42.522;27.456;2023-06-26T04:08:45;16.30;;;8.10;;
50249;SDS011;36133;42.522;27.456;2023-06-26T04:11:10;15.25;;;7.72;;
50249;SDS011;36133;42.522;27.456;2023-06-26T04:13:36;11.85;;;7.68;;
50249;SDS011;36133;42.522;27.456;2023-06-26T04:16:01;14.52;;;7.82;;
50249;SDS011;36133;42.522;27.456;2023-06-26T04:18:27;14.60;;;7.68;;
50249;SDS011;36133;42.522;27.456;2023-06-26T04:23:36;12.02;;;7.45;;
50249;SDS011;36133;42.522;27.456;2023-06-26T04:26:02;11.13;;;7.65;;
50249;SDS011;36133;42.522;27.456;2023-06-26T04:28:30;13.02;;;7.43;;
50249;SDS011;36133;42.522;27.456;2023-06-26T04:30:59;12.38;;;7.50;;
50249;SDS011;36133;42.522;27.456;2023-06-26T04:33:25;11.60;;;7.10;;
50249;SDS011;36133;42.522;27.456;2023-06-26T04:35:51;11.95;;;7.55;;
50249;SDS011;36133;42.522;27.456;2023-06-26T04:38:17;14.13;;;8.10;;
50249;SDS011;36133;42.522;27.456;2023-06-26T04:40:43;15.07;;;7.50;;
50249;SDS011;36133;42.522;27.456;2023-06-26T04:43:09;12.30;;;7.03;;
50249;SDS011;36133;42.522;27.456;2023-06-26T04:45:35;12.98;;;7.60;;
50249;SDS011;36133;42.522;27.456;2023-06-26T04:48:00;12.55;;;8.05;;
50249;SDS011;36133;42.522;27.456;2023-06-26T04:50:26;15.20;;;7.30;;
50249;SDS011;36133;42.522;27.456;2023-06-26T04:52:54;15.75;;;8.38;;
50249;SDS011;36133;42.522;27.456;2023-06-26T04:55:20;13.95;;;8.63;;
50249;SDS011;36133;42.522;27.456;2023-06-26T04:57:46;15.15;;;8.30;;
50249;SDS011;36133;42.522;27.456;2023-06-26T05:00:12;11.90;;;8.07;;
50249;SDS011;36133;42.522;27.456;2023-06-26T05:02:39;15.45;;;7.90;;
50249;SDS011;36133;42.522;27.456;2023-06-26T05:05:04;13.38;;;8.05;;
50249;SDS011;36133;42.522;27.456;2023-06-26T05:07:30;14.27;;;8.55;;
50249;SDS011;36133;42.522;27.456;2023-06-26T05:09:56;12.77;;;8.57;;
50249;SDS011;36133;42.522;27.456;2023-06-26T05:12:21;14.60;;;8.30;;
50249;SDS011;36133;42.522;27.456;2023-06-26T05:14:47;14.20;;;8.80;;
50249;SDS011;36133;42.522;27.456;2023-06-26T05:17:15;14.75;;;8.80;;
50249;SDS011;36133;42.522;27.456;2023-06-26T05:19:41;14.35;;;8.77;;
50249;SDS011;36133;42.522;27.456;2023-06-26T05:22:06;12.95;;;8.98;;
50249;SDS011;36133;42.522;27.456;2023-06-26T05:24:33;14.40;;;9.15;;
50249;SDS011;36133;42.522;27.456;2023-06-26T05:27:01;15.70;;;9.10;;
50249;SDS011;36133;42.522;27.456;2023-06-26T05:29:27;15.38;;;8.50;;
50249;SDS011;36133;42.522;27.456;2023-06-26T05:31:52;12.98;;;8.02;;
50249;SDS011;36133;42.522;27.456;2023-06-26T05:34:21;11.95;;;8.75;;
50249;SDS011;36133;42.522;27.456;2023-06-26T05:36:50;13.73;;;8.63;;
50249;SDS011;36133;42.522;27.456;2023-06-26T05:39:17;13.52;;;8.15;;
50249;SDS011;36133;42.522;27.456;2023-06-26T05:41:46;16.15;;;9.27;;
50249;SDS011;36133;42.522;27.456;2023-06-26T05:44:11;17.48;;;9.25;;
50249;SDS011;36133;42.522;27.456;2023-06-26T05:46:37;12.27;;;9.52;;
50249;SDS011;36133;42.522;27.456;2023-06-26T05:49:03;13.43;;;8.93;;
50249;SDS011;36133;42.522;27.456;2023-06-26T05:51:29;17.55;;;8.80;;
50249;SDS011;36133;42.522;27.456;2023-06-26T05:53:54;18.48;;;10.15;;
50249;SDS011;36133;42.522;27.456;2023-06-26T05:56:20;11.45;;;9.13;;
50249;SDS011;36133;42.522;27.456;2023-06-26T05:58:46;14.98;;;8.65;;
50249;SDS011;36133;42.522;27.456;2023-06-26T06:01:12;11.88;;;9.18;;
50249;SDS011;36133;42.522;27.456;2023-06-26T06:03:38;19.95;;;10.23;;
50249;SDS011;36133;42.522;27.456;2023-06-26T06:06:05;20.77;;;10.73;;
50249;SDS011;36133;42.522;27.456;2023-06-26T06:08:30;15.48;;;9.82;;
50249;SDS011;36133;42.522;27.456;2023-06-26T06:10:56;13.82;;;9.63;;
50249;SDS011;36133;42.522;27.456;2023-06-26T06:13:22;16.55;;;9.55;;
50249;SDS011;36133;42.522;27.456;2023-06-26T06:15:47;16.90;;;9.43;;
50249;SDS011;36133;42.522;27.456;2023-06-26T06:18:14;14.20;;;9.23;;
50249;SDS011;36133;42.522;27.456;2023-06-26T06:20:39;20.60;;;10.38;;
50249;SDS011;36133;42.522;27.456;2023-06-26T06:23:05;13.95;;;10.02;;
50249;SDS011;36133;42.522;27.456;2023-06-26T06:25:31;17.85;;;10.18;;
50249;SDS011;36133;42.522;27.456;2023-06-26T06:27:57;15.98;;;9.48;;
50249;SDS011;36133;42.522;27.456;2023-06-26T06:30:25;17.95;;;9.13;;
50249;SDS011;36133;42.522;27.456;2023-06-26T06:32:53;18.40;;;9.77;;
50249;SDS011;36133;42.522;27.456;2023-06-26T06:35:21;14.05;;;10.20;;
50249;SDS011;36133;42.522;27.456;2023-06-26T06:37:47;17.85;;;11.02;;
50249;SDS011;36133;42.522;27.456;2023-06-26T06:40:14;19.52;;;11.20;;
50249;SDS011;36133;42.522;27.456;2023-06-26T06:42:40;15.88;;;10.63;;
50249;SDS011;36133;42.522;27.456;2023-06-26T06:45:09;19.63;;;11.40;;
50249;SDS011;36133;42.522;27.456;2023-06-26T06:47:35;18.40;;;11.77;;
50249;SDS011;36133;42.522;27.456;2023-06-26T06:50:01;18.85;;;11.93;;
50249;SDS011;36133;42.522;27.456;2023-06-26T06:52:39;12.52;;;10.40;;
50249;SDS011;36133;42.522;27.456;2023-06-26T06:55:06;19.42;;;13.23;;
50249;SDS011;36133;42.522;27.456;2023-06-26T06:57:36;17.63;;;11.98;;
50249;SDS011;36133;42.522;27.456;2023-06-26T07:00:11;18.42;;;12.23;;
50249;SDS011;36133;42.522;27.456;2023-06-26T07:02:39;16.38;;;13.00;;
50249;SDS011;36133;42.522;27.456;2023-06-26T07:05:07;17.95;;;13.95;;
50249;SDS011;36133;42.522;27.456;2023-06-26T07:07:34;20.80;;;15.02;;
50249;SDS011;36133;42.522;27.456;2023-06-26T07:10:13;27.85;;;16.52;;
50249;SDS011;36133;42.522;27.456;2023-06-26T07:12:44;24.80;;;15.68;;
50249;SDS011;36133;42.522;27.456;2023-06-26T07:15:10;22.08;;;15.40;;
50249;SDS011;36133;42.522;27.456;2023-06-26T07:17:36;21.17;;;15.93;;
50249;SDS011;36133;42.522;27.456;2023-06-26T07:20:04;26.00;;;18.20;;
50249;SDS011;36133;42.522;27.456;2023-06-26T07:22:34;26.65;;;16.17;;
50249;SDS011;36133;42.522;27.456;2023-06-26T07:25:00;22.00;;;15.18;;
50249;SDS011;36133;42.522;27.456;2023-06-26T07:27:25;24.25;;;17.33;;
50249;SDS011;36133;42.522;27.456;2023-06-26T07:29:51;28.45;;;17.88;;
50249;SDS011;36133;42.522;27.456;2023-06-26T07:32:17;29.48;;;19.38;;
50249;SDS011;36133;42.522;27.456;2023-06-26T07:34:45;41.10;;;21.58;;
50249;SDS011;36133;42.522;27.456;2023-06-26T07:37:11;20.25;;;11.88;;
50249;SDS011;36133;42.522;27.456;2023-06-26T07:39:36;22.55;;;12.07;;
50249;SDS011;36133;42.522;27.456;2023-06-26T07:42:02;22.30;;;15.52;;
50249;SDS011;36133;42.522;27.456;2023-06-26T07:44:28;26.75;;;18.52;;
50249;SDS011;36133;42.522;27.456;2023-06-26T07:46:53;33.05;;;21.23;;
50249;SDS011;36133;42.522;27.456;2023-06-26T07:49:19;35.67;;;22.77;;
50249;SDS011;36133;42.522;27.456;2023-06-26T07:51:48;26.73;;;19.33;;
50249;SDS011;36133;42.522;27.456;2023-06-26T07:54:14;28.83;;;19.50;;
50249;SDS011;36133;42.522;27.456;2023-06-26T07:56:59;30.85;;;20.35;;
50249;SDS011;36133;42.522;27.456;2023-06-26T07:59:35;27.52;;;17.92;;
50249;SDS011;36133;42.522;27.456;2023-06-26T08:02:01;29.25;;;17.35;;
50249;SDS011;36133;42.522;27.456;2023-06-26T08:04:27;23.60;;;16.73;;
50249;SDS011;36133;42.522;27.456;2023-06-26T08:06:55;22.90;;;15.07;;
50249;SDS011;36133;42.522;27.456;2023-06-26T08:09:23;17.55;;;12.48;;
50249;SDS011;36133;42.522;27.456;2023-06-26T08:12:00;21.55;;;13.43;;
50249;SDS011;36133;42.522;27.456;2023-06-26T08:14:26;23.40;;;14.10;;
50249;SDS011;36133;42.522;27.456;2023-06-26T08:16:52;23.45;;;12.32;;
50249;SDS011;36133;42.522;27.456;2023-06-26T08:19:21;15.45;;;11.95;;
50249;SDS011;36133;42.522;27.456;2023-06-26T08:21:49;23.75;;;11.40;;
50249;SDS011;36133;42.522;27.456;2023-06-26T08:24:15;18.20;;;12.70;;
50249;SDS011;36133;42.522;27.456;2023-06-26T08:26:46;19.02;;;12.82;;
50249;SDS011;36133;42.522;27.456;2023-06-26T08:29:21;17.67;;;13.65;;
50249;SDS011;36133;42.522;27.456;2023-06-26T08:31:54;19.40;;;13.05;;
50249;SDS011;36133;42.522;27.456;2023-06-26T08:34:28;19.10;;;12.37;;
50249;SDS011;36133;42.522;27.456;2023-06-26T08:37:00;13.98;;;11.68;;
50249;SDS011;36133;42.522;27.456;2023-06-26T08:39:31;23.15;;;12.52;;
50249;SDS011;36133;42.522;27.456;2023-06-26T08:41:57;15.20;;;11.25;;
50249;SDS011;36133;42.522;27.456;2023-06-26T08:44:29;21.02;;;12.02;;
50249;SDS011;36133;42.522;27.456;2023-06-26T08:50:07;17.88;;;12.50;;
50249;SDS011;36133;42.522;27.456;2023-06-26T08:52:58;20.30;;;12.23;;
50249;SDS011;36133;42.522;27.456;2023-06-26T08:55:36;19.60;;;12.88;;
50249;SDS011;36133;42.522;27.456;2023-06-26T08:58:05;18.10;;;12.38;;
50249;SDS011;36133;42.522;27.456;2023-06-26T09:00:31;13.68;;;9.35;;
50249;SDS011;36133;42.522;27.456;2023-06-26T09:03:08;22.45;;;12.52;;
50249;SDS011;36133;42.522;27.456;2023-06-26T09:05:38;17.05;;;12.63;;
50249;SDS011;36133;42.522;27.456;2023-06-26T09:08:07;14.85;;;11.15;;
50249;SDS011;36133;42.522;27.456;2023-06-26T09:10:54;19.67;;;11.73;;
50249;SDS011;36133;42.522;27.456;2023-06-26T09:13:42;13.50;;;10.73;;
50249;SDS011;36133;42.522;27.456;2023-06-26T09:16:09;13.30;;;10.63;;
50249;SDS011;36133;42.522;27.456;2023-06-26T09:18:37;14.80;;;10.88;;
50249;SDS011;36133;42.522;27.456;2023-06-26T09:21:10;14.98;;;10.43;;
50249;SDS011;36133;42.522;27.456;2023-06-26T09:23:36;15.43;;;10.05;;
50249;SDS011;36133;42.522;27.456;2023-06-26T09:26:06;16.60;;;11.10;;
50249;SDS011;36133;42.522;27.456;2023-06-26T09:28:32;19.52;;;11.15;;
50249;SDS011;36133;42.522;27.456;2023-06-26T09:31:05;12.63;;;9.88;;
50249;SDS011;36133;42.522;27.456;2023-06-26T09:33:36;17.15;;;9.90;;
50249;SDS011;36133;42.522;27.456;2023-06-26T09:36:06;11.20;;;9.27;;
50249;SDS011;36133;42.522;27.456;2023-06-26T09:38:35;16.00;;;9.68;;
50249;SDS011;36133;42.522;27.456;2023-06-26T09:41:01;13.20;;;9.15;;
50249;SDS011;36133;42.522;27.456;2023-06-26T09:43:30;15.60;;;9.32;;
50249;SDS011;36133;42.522;27.456;2023-06-26T09:45:57;13.20;;;9.25;;
50249;SDS011;36133;42.522;27.456;2023-06-26T09:48:28;20.20;;;8.90;;
50249;SDS011;36133;42.522;27.456;2023-06-26T09:50:59;16.50;;;8.95;;
50249;SDS011;36133;42.522;27.456;2023-06-26T09:53:28;16.67;;;8.98;;
50249;SDS011;36133;42.522;27.456;2023-06-26T09:55:56;12.15;;;7.72;;
50249;SDS011;36133;42.522;27.456;2023-06-26T09:58:32;17.05;;;9.25;;
50249;SDS011;36133;42.522;27.456;2023-06-26T10:01:00;24.63;;;9.23;;
50249;SDS011;36133;42.522;27.456;2023-06-26T10:03:27;9.90;;;7.22;;
50249;SDS011;36133;42.522;27.456;2023-06-26T10:05:52;11.57;;;7.57;;
50249;SDS011;36133;42.522;27.456;2023-06-26T10:08:19;12.52;;;7.10;;
50249;SDS011;36133;42.522;27.456;2023-06-26T10:10:46;12.23;;;7.30;;
50249;SDS011;36133;42.522;27.456;2023-06-26T10:13:18;11.77;;;7.22;;
50249;SDS011;36133;42.522;27.456;2023-06-26T10:15:47;13.95;;;7.03;;
50249;SDS011;36133;42.522;27.456;2023-06-26T10:18:18;16.48;;;7.97;;
50249;SDS011;36133;42.522;27.456;2023-06-26T10:20:47;13.25;;;7.90;;
50249;SDS011;36133;42.522;27.456;2023-06-26T10:23:18;11.98;;;7.03;;
50249;SDS011;36133;42.522;27.456;2023-06-26T10:25:45;10.05;;;7.28;;
50249;SDS011;36133;42.522;27.456;2023-06-26T10:28:32;13.15;;;7.45;;
50249;SDS011;36133;42.522;27.456;2023-06-26T10:31:05;13.25;;;7.22;;
50249;SDS011;36133;42.522;27.456;2023-06-26T10:33:37;9.88;;;6.55;;
50249;SDS011;36133;42.522;27.456;2023-06-26T10:36:16;15.93;;;7.28;;
50249;SDS011;36133;42.522;27.456;2023-06-26T10:38:55;12.48;;;6.63;;
50249;SDS011;36133;42.522;27.456;2023-06-26T10:41:23;13.23;;;7.47;;
50249;SDS011;36133;42.522;27.456;2023-06-26T10:43:49;16.20;;;7.28;;
50249;SDS011;36133;42.522;27.456;2023-06-26T10:46:17;8.75;;;6.05;;
50249;SDS011;36133;42.522;27.456;2023-06-26T10:49:00;8.30;;;6.32;;
50249;SDS011;36133;42.522;27.456;2023-06-26T10:51:31;15.02;;;6.72;;
50249;SDS011;36133;42.522;27.456;2023-06-26T10:53:57;11.05;;;6.65;;
50249;SDS011;36133;42.522;27.456;2023-06-26T10:56:42;14.32;;;6.82;;
50249;SDS011;36133;42.522;27.456;2023-06-26T10:59:18;15.48;;;9.48;;
50249;SDS011;36133;42.522;27.456;2023-06-26T11:01:45;20.15;;;10.07;;
50249;SDS011;36133;42.522;27.456;2023-06-26T11:04:14;16.70;;;10.07;;
50249;SDS011;36133;42.522;27.456;2023-06-26T11:06:41;14.48;;;10.50;;
50249;SDS011;36133;42.522;27.456;2023-06-26T11:09:11;15.23;;;10.68;;
50249;SDS011;36133;42.522;27.456;2023-06-26T11:11:55;21.30;;;12.38;;
50249;SDS011;36133;42.522;27.456;2023-06-26T11:14:25;19.45;;;12.77;;
50249;SDS011;36133;42.522;27.456;2023-06-26T11:17:01;15.73;;;12.43;;
50249;SDS011;36133;42.522;27.456;2023-06-26T11:19:40;22.05;;;12.02;;
50249;SDS011;36133;42.522;27.456;2023-06-26T11:22:08;20.75;;;12.60;;
50249;SDS011;36133;42.522;27.456;2023-06-26T11:24:36;19.88;;;14.30;;
50249;SDS011;36133;42.522;27.456;2023-06-26T11:27:07;19.17;;;14.45;;
50249;SDS011;36133;42.522;27.456;2023-06-26T11:29:32;23.02;;;15.45;;
50249;SDS011;36133;42.522;27.456;2023-06-26T11:31:59;20.90;;;15.18;;
50249;SDS011;36133;42.522;27.456;2023-06-26T11:34:32;21.30;;;16.15;;
50249;SDS011;36133;42.522;27.456;2023-06-26T11:36:58;28.50;;;16.25;;
50249;SDS011;36133;42.522;27.456;2023-06-26T11:39:26;24.73;;;17.33;;
50249;SDS011;36133;42.522;27.456;2023-06-26T11:42:02;22.58;;;17.20;;
50249;SDS011;36133;42.522;27.456;2023-06-26T11:44:30;25.42;;;17.60;;
50249;SDS011;36133;42.522;27.456;2023-06-26T11:46:59;22.83;;;15.98;;
50249;SDS011;36133;42.522;27.456;2023-06-26T11:49:28;21.60;;;15.77;;
50249;SDS011;36133;42.522;27.456;2023-06-26T11:51:57;26.05;;;15.10;;
50249;SDS011;36133;42.522;27.456;2023-06-26T11:54:27;20.83;;;15.40;;
50249;SDS011;36133;42.522;27.456;2023-06-26T11:56:57;26.13;;;15.38;;
50249;SDS011;36133;42.522;27.456;2023-06-26T11:59:31;27.23;;;15.57;;
50249;SDS011;36133;42.522;27.456;2023-06-26T12:02:04;22.75;;;14.30;;
50249;SDS011;36133;42.522;27.456;2023-06-26T12:04:41;21.15;;;13.93;;
50249;SDS011;36133;42.522;27.456;2023-06-26T12:07:08;27.00;;;15.02;;
50249;SDS011;36133;42.522;27.456;2023-06-26T12:09:46;19.92;;;15.05;;
50249;SDS011;36133;42.522;27.456;2023-06-26T12:12:16;20.95;;;14.57;;
50249;SDS011;36133;42.522;27.456;2023-06-26T12:14:46;18.48;;;12.80;;
50249;SDS011;36133;42.522;27.456;2023-06-26T12:17:13;27.45;;;13.88;;
50249;SDS011;36133;42.522;27.456;2023-06-26T12:19:42;18.73;;;13.63;;
50249;SDS011;36133;42.522;27.456;2023-06-26T12:22:09;17.23;;;12.63;;
50249;SDS011;36133;42.522;27.456;2023-06-26T12:24:37;16.00;;;13.15;;
50249;SDS011;36133;42.522;27.456;2023-06-26T12:27:08;15.63;;;12.55;;
50249;SDS011;36133;42.522;27.456;2023-06-26T12:29:40;20.05;;;12.48;;
50249;SDS011;36133;42.522;27.456;2023-06-26T12:32:14;19.20;;;13.23;;
50249;SDS011;36133;42.522;27.456;2023-06-26T12:34:48;26.23;;;13.30;;
50249;SDS011;36133;42.522;27.456;2023-06-26T12:37:22;19.10;;;12.43;;
50249;SDS011;36133;42.522;27.456;2023-06-26T12:39:54;19.52;;;12.60;;
50249;SDS011;36133;42.522;27.456;2023-06-26T12:42:23;18.58;;;12.40;;
50249;SDS011;36133;42.522;27.456;2023-06-26T12:44:53;13.73;;;12.05;;
50249;SDS011;36133;42.522;27.456;2023-06-26T12:47:25;20.45;;;12.80;;
50249;SDS011;36133;42.522;27.456;2023-06-26T12:49:52;22.08;;;13.88;;
50249;SDS011;36133;42.522;27.456;2023-06-26T12:52:18;17.73;;;12.98;;
50249;SDS011;36133;42.522;27.456;2023-06-26T12:54:45;17.23;;;12.93;;
50249;SDS011;36133;42.522;27.456;2023-06-26T12:57:12;14.63;;;12.45;;
50249;SDS011;36133;42.522;27.456;2023-06-26T12:59:41;15.45;;;12.57;;
50249;SDS011;36133;42.522;27.456;2023-06-26T13:02:10;20.30;;;12.50;;
50249;SDS011;36133;42.522;27.456;2023-06-26T13:04:41;14.07;;;11.00;;
50249;SDS011;36133;42.522;27.456;2023-06-26T13:07:17;16.70;;;11.30;;
50249;SDS011;36133;42.522;27.456;2023-06-26T13:09:43;16.67;;;11.90;;
50249;SDS011;36133;42.522;27.456;2023-06-26T13:12:10;16.05;;;11.48;;
50249;SDS011;36133;42.522;27.456;2023-06-26T13:14:36;18.23;;;11.88;;
50249;SDS011;36133;42.522;27.456;2023-06-26T13:17:06;17.67;;;11.95;;
50249;SDS011;36133;42.522;27.456;2023-06-26T13:19:32;17.70;;;12.60;;
50249;SDS011;36133;42.522;27.456;2023-06-26T13:21:58;17.38;;;12.63;;
50249;SDS011;36133;42.522;27.456;2023-06-26T13:24:24;17.00;;;11.85;;
50249;SDS011;36133;42.522;27.456;2023-06-26T13:26:50;18.05;;;12.30;;
50249;SDS011;36133;42.522;27.456;2023-06-26T13:29:15;18.55;;;12.70;;
50249;SDS011;36133;42.522;27.456;2023-06-26T13:31:41;15.43;;;10.80;;
50249;SDS011;36133;42.522;27.456;2023-06-26T13:34:07;17.23;;;10.35;;
50249;SDS011;36133;42.522;27.456;2023-06-26T13:36:32;15.63;;;9.93;;
50249;SDS011;36133;42.522;27.456;2023-06-26T13:39:01;13.40;;;10.35;;
50249;SDS011;36133;42.522;27.456;2023-06-26T13:41:27;16.77;;;9.43;;
50249;SDS011;36133;42.522;27.456;2023-06-26T13:43:53;13.85;;;9.70;;
50249;SDS011;36133;42.522;27.456;2023-06-26T13:46:19;10.68;;;8.15;;
50249;SDS011;36133;42.522;27.456;2023-06-26T13:48:45;13.13;;;7.25;;
50249;SDS011;36133;42.522;27.456;2023-06-26T13:51:11;11.20;;;7.07;;
50249;SDS011;36133;42.522;27.456;2023-06-26T13:53:37;13.98;;;7.43;;
50249;SDS011;36133;42.522;27.456;2023-06-26T13:56:05;11.90;;;7.60;;
50249;SDS011;36133;42.522;27.456;2023-06-26T13:58:34;7.82;;;6.35;;
50249;SDS011;36133;42.522;27.456;2023-06-26T14:01:03;13.88;;;6.50;;
50249;SDS011;36133;42.522;27.456;2023-06-26T14:03:29;9.38;;;6.63;;
50249;SDS011;36133;42.522;27.456;2023-06-26T14:05:58;9.02;;;6.18;;
50249;SDS011;36133;42.522;27.456;2023-06-26T14:08:23;7.63;;;6.10;;
50249;SDS011;36133;42.522;27.456;2023-06-26T14:10:49;9.95;;;6.07;;
50249;SDS011;36133;42.522;27.456;2023-06-26T14:13:15;12.27;;;6.57;;
50249;SDS011;36133;42.522;27.456;2023-06-26T14:15:41;9.23;;;6.72;;
50249;SDS011;36133;42.522;27.456;2023-06-26T14:18:18;7.60;;;6.47;;
50249;SDS011;36133;42.522;27.456;2023-06-26T14:20:45;8.30;;;6.03;;
50249;SDS011;36133;42.522;27.456;2023-06-26T14:23:14;5.93;;;5.25;;
50249;SDS011;36133;42.522;27.456;2023-06-26T14:25:42;9.18;;;5.70;;
50249;SDS011;36133;42.522;27.456;2023-06-26T14:28:11;10.23;;;5.10;;
50249;SDS011;36133;42.522;27.456;2023-06-26T14:30:37;6.85;;;5.10;;
50249;SDS011;36133;42.522;27.456;2023-06-26T14:33:02;7.85;;;4.82;;
50249;SDS011;36133;42.522;27.456;2023-06-26T14:35:31;8.50;;;4.88;;
50249;SDS011;36133;42.522;27.456;2023-06-26T14:37:59;10.43;;;5.25;;
50249;SDS011;36133;42.522;27.456;2023-06-26T14:40:24;7.75;;;6.00;;